Time;durP1;ratioP1;P1;durP2;ratioP2;P2;SDS_P1;SDS_P2;PMS_P1;PMS_P2;Temp;Humidity;BMP_temperature;BMP_pressure;BME280_temperature;BME280_humidity;BME280_pressure;Samples;Min_cycle;Max_cycle;Signal;HPM_P1;HPM_P2
2021/08/20 00:01:01;;;;;;;7.75;4.10;;;461.40;2304.00;;;;;;5038744;28;20037;-86
2021/08/20 00:03:27;;;;;;;8.15;3.67;;;461.40;2304.00;;;;;;5039029;28;20029;-85
2021/08/20 00:05:53;;;;;;;10.75;3.95;;;461.30;2329.60;;;;;;5038397;28;20035;-85
2021/08/20 00:08:19;;;;;;;9.10;5.25;;;461.40;2304.00;;;;;;5038918;28;20037;-84
2021/08/20 00:10:44;;;;;;;9.40;4.22;;;461.40;2304.00;;;;;;5038790;28;20509;-86
2021/08/20 00:13:10;;;;;;;11.98;4.63;;;461.40;2304.00;;;;;;5039575;28;20025;-86
2021/08/20 00:15:36;;;;;;;9.40;4.68;;;461.40;2304.00;;;;;;5039174;28;20021;-86
2021/08/20 00:18:02;;;;;;;8.38;4.25;;;461.50;2278.40;;;;;;5038877;28;20061;-86
2021/08/20 00:20:28;;;;;;;5.95;3.67;;;461.40;2304.00;;;;;;5039399;28;20028;-86
2021/08/20 00:22:54;;;;;;;8.07;3.70;;;461.40;2304.00;;;;;;5038742;28;20481;-86
2021/08/20 00:25:20;;;;;;;10.68;4.68;;;461.20;2329.60;;;;;;5038758;28;20064;-83
2021/08/20 00:27:47;;;;;;;10.70;5.38;;;461.30;2329.60;;;;;;5039357;28;20029;-86
2021/08/20 00:30:14;;;;;;;8.95;4.28;;;461.30;2329.60;;;;;;5038752;28;20108;-84
2021/08/20 00:32:39;;;;;;;9.77;4.68;;;461.50;2304.00;;;;;;5038542;28;20071;-85
2021/08/20 00:35:06;;;;;;;10.73;4.57;;;461.10;2329.60;;;;;;5039144;28;20060;-87
2021/08/20 00:37:33;;;;;;;9.60;4.32;;;461.50;2329.60;;;;;;5038417;28;20029;-87
2021/08/20 00:39:59;;;;;;;10.00;5.03;;;460.90;2380.80;;;;;;5038006;28;20060;-87
2021/08/20 00:42:25;;;;;;;7.50;4.00;;;460.90;2380.80;;;;;;5038173;28;20028;-87
2021/08/20 00:44:52;;;;;;;7.18;4.00;;;461.00;2380.80;;;;;;5037748;28;20021;-85
2021/08/20 00:47:18;;;;;;;6.90;3.80;;;460.80;2380.80;;;;;;5037861;28;20021;-87
2021/08/20 00:49:46;;;;;;;10.63;3.75;;;435.80;2355.20;;;;;;5037803;28;20025;-86
2021/08/20 00:52:12;;;;;;;6.75;3.65;;;435.40;2355.20;;;;;;5037756;28;20032;-87
2021/08/20 00:54:39;;;;;;;8.15;4.28;;;435.40;2355.20;;;;;;5038168;28;20059;-86
2021/08/20 00:57:05;;;;;;;8.07;3.90;;;435.80;2355.20;;;;;;5037087;28;20087;-86
2021/08/20 00:59:31;;;;;;;8.07;3.78;;;435.40;2355.20;;;;;;5037506;28;20029;-85
2021/08/20 01:01:57;;;;;;;8.25;3.90;;;435.50;2355.20;;;;;;5037712;28;20108;-86
2021/08/20 01:04:23;;;;;;;6.95;3.83;;;435.60;2355.20;;;;;;5037404;28;20021;-86
2021/08/20 01:06:54;;;;;;;7.35;3.97;;;435.80;2355.20;;;;;;5037411;28;20048;-86
2021/08/20 01:09:20;;;;;;;6.32;3.63;;;435.50;2355.20;;;;;;5037629;28;20036;-86
2021/08/20 01:11:47;;;;;;;5.70;3.50;;;435.70;2355.20;;;;;;5037575;28;20477;-87
2021/08/20 01:14:16;;;;;;;8.63;3.35;;;435.80;2355.20;;;;;;5037227;28;20166;-86
2021/08/20 01:16:42;;;;;;;6.97;3.83;;;435.90;2355.20;;;;;;5037242;28;20025;-86
2021/08/20 01:19:08;;;;;;;6.32;3.40;;;436.10;2355.20;;;;;;5037233;28;20097;-86
2021/08/20 01:21:34;;;;;;;8.27;3.60;;;460.80;2380.80;;;;;;5037384;28;20078;-86
2021/08/20 01:24:02;;;;;;;8.52;3.45;;;460.80;2380.80;;;;;;5037158;28;20026;-86
2021/08/20 01:26:29;;;;;;;5.97;3.67;;;460.80;2380.80;;;;;;5054900;28;20023;-85
2021/08/20 01:28:56;;;;;;;7.80;3.60;;;460.80;2380.80;;;;;;5037242;28;20039;-85
2021/08/20 01:31:23;;;;;;;8.55;3.53;;;460.90;2380.80;;;;;;5036912;28;20032;-86
2021/08/20 01:33:49;;;;;;;6.65;3.42;;;460.80;2380.80;;;;;;5037012;28;20057;-86
2021/08/20 01:36:15;;;;;;;5.85;3.70;;;460.80;2380.80;;;;;;5037086;28;20029;-86
2021/08/20 01:38:52;;;;;;;7.32;3.55;;;460.80;2380.80;;;;;;5036757;28;20047;-85
2021/08/20 01:41:20;;;;;;;6.78;3.28;;;460.80;2380.80;;;;;;5054944;28;20116;-86
2021/08/20 01:43:46;;;;;;;7.35;3.47;;;460.80;2380.80;;;;;;5037167;28;20025;-86
2021/08/20 01:46:12;;;;;;;9.45;4.03;;;436.10;2355.20;;;;;;5037411;28;20029;-86
2021/08/20 01:48:50;;;;;;;12.77;3.88;;;436.10;2355.20;;;;;;5036979;28;20451;-85
2021/08/20 01:51:17;;;;;;;6.70;3.42;;;436.10;2355.20;;;;;;5036686;28;20036;-86
2021/08/20 01:53:44;;;;;;;8.57;3.65;;;436.10;2355.20;;;;;;5036612;28;20048;-86
2021/08/20 01:56:30;;;;;;;8.35;3.83;;;436.10;2355.20;;;;;;5054236;28;20064;-86
2021/08/20 01:58:58;;;;;;;6.82;3.47;;;460.80;2380.80;;;;;;5036631;28;20029;-85
2021/08/20 02:01:25;;;;;;;10.15;4.45;;;460.80;2380.80;;;;;;5036501;28;20382;-86
2021/08/20 02:03:51;;;;;;;7.43;3.70;;;436.10;2355.20;;;;;;5036637;28;20036;-86
2021/08/20 02:06:17;;;;;;;5.88;3.70;;;436.10;2355.20;;;;;;5036575;28;20466;-85
2021/08/20 02:08:43;;;;;;;13.85;5.82;;;460.80;2380.80;;;;;;5036468;28;20068;-86
2021/08/20 02:11:10;;;;;;;10.50;6.57;;;435.30;2355.20;;;;;;5036467;28;20543;-86
2021/08/20 02:13:39;;;;;;;10.23;5.82;;;435.20;2355.20;;;;;;5036589;28;20025;-86
2021/08/20 02:16:06;;;;;;;15.45;6.85;;;435.30;2355.20;;;;;;5036418;28;20075;-86
2021/08/20 02:18:32;;;;;;;11.00;5.65;;;435.50;2355.20;;;;;;5036313;28;20037;-87
2021/08/20 02:20:59;;;;;;;10.40;4.97;;;436.00;2355.20;;;;;;5036030;28;20112;-86
2021/08/20 02:23:25;;;;;;;8.75;4.38;;;435.40;2355.20;;;;;;5036271;28;20032;-86
2021/08/20 02:25:50;;;;;;;8.88;3.78;;;435.50;2355.20;;;;;;5036856;28;20083;-86
2021/08/20 02:28:16;;;;;;;7.70;3.83;;;435.60;2355.20;;;;;;5036875;28;20427;-86
2021/08/20 02:30:42;;;;;;;6.55;3.65;;;435.60;2355.20;;;;;;5036251;28;20540;-85
2021/08/20 02:33:08;;;;;;;7.40;4.35;;;435.50;2355.20;;;;;;5036191;28;20024;-86
2021/08/20 02:35:34;;;;;;;9.50;3.90;;;435.60;2355.20;;;;;;5035950;28;20075;-86
2021/08/20 02:38:00;;;;;;;10.27;4.68;;;435.60;2355.20;;;;;;5035828;28;20033;-86
2021/08/20 02:40:26;;;;;;;8.27;4.72;;;435.60;2355.20;;;;;;5036285;28;20029;-85
2021/08/20 02:42:52;;;;;;;7.07;3.67;;;435.70;2355.20;;;;;;5036323;28;20033;-87
2021/08/20 02:45:18;;;;;;;8.30;4.20;;;410.50;2355.20;;;;;;5036299;28;20025;-86
2021/08/20 02:47:47;;;;;;;12.93;4.80;;;410.10;2355.20;;;;;;5036135;28;20032;-88
2021/08/20 02:50:13;;;;;;;9.75;4.35;;;409.90;2355.20;;;;;;5035710;28;20113;-88
2021/08/20 02:52:39;;;;;;;7.40;3.80;;;410.10;2355.20;;;;;;5035933;28;20386;-89
2021/08/20 02:55:06;;;;;;;6.88;3.53;;;410.30;2355.20;;;;;;5035780;28;20021;-87
2021/08/20 02:57:31;;;;;;;6.55;3.90;;;435.20;2355.20;;;;;;5035966;28;20033;-86
2021/08/20 02:59:57;;;;;;;7.43;4.30;;;410.50;2355.20;;;;;;5036171;28;20039;-86
2021/08/20 03:02:24;;;;;;;6.82;3.75;;;435.20;2355.20;;;;;;5035902;28;20029;-87
2021/08/20 03:04:50;;;;;;;9.45;4.40;;;435.30;2355.20;;;;;;5038958;28;20470;-88
2021/08/20 03:07:17;;;;;;;8.82;5.15;;;435.90;2355.20;;;;;;5039926;28;20428;-86
2021/08/20 03:09:42;;;;;;;7.90;4.35;;;410.40;2355.20;;;;;;5041796;28;20116;-88
2021/08/20 03:12:09;;;;;;;7.38;3.80;;;435.20;2355.20;;;;;;5039883;28;20115;-88
2021/08/20 03:14:35;;;;;;;7.15;4.15;;;435.70;2355.20;;;;;;5039930;28;20032;-88
2021/08/20 03:17:01;;;;;;;9.38;4.30;;;435.30;2355.20;;;;;;5039599;28;20029;-86
2021/08/20 03:19:27;;;;;;;10.00;4.20;;;435.40;2355.20;;;;;;5039730;28;20033;-88
2021/08/20 03:21:53;;;;;;;7.20;5.00;;;435.60;2355.20;;;;;;5039449;28;20070;-87
2021/08/20 03:24:19;;;;;;;8.13;3.95;;;435.50;2355.20;;;;;;5039465;28;20493;-88
2021/08/20 03:26:44;;;;;;;10.55;4.15;;;410.20;2355.20;;;;;;5039440;28;20052;-88
2021/08/20 03:29:10;;;;;;;8.40;4.38;;;410.00;2355.20;;;;;;5039518;28;20386;-86
2021/08/20 03:31:39;;;;;;;8.38;3.88;;;410.10;2355.20;;;;;;5039563;28;20365;-86
2021/08/20 03:34:05;;;;;;;8.93;3.67;;;410.40;2355.20;;;;;;5040289;28;20422;-87
2021/08/20 03:36:30;;;;;;;8.02;3.83;;;410.40;2355.20;;;;;;5039493;28;20033;-86
2021/08/20 03:38:56;;;;;;;8.18;3.78;;;410.40;2355.20;;;;;;5039413;28;20486;-87
2021/08/20 03:41:23;;;;;;;8.25;4.22;;;410.20;2355.20;;;;;;5039406;28;20075;-87
2021/08/20 03:43:49;;;;;;;11.35;4.28;;;410.20;2355.20;;;;;;5039262;28;20032;-87
2021/08/20 03:46:15;;;;;;;12.38;6.50;;;409.80;2355.20;;;;;;5038949;28;20032;-86
2021/08/20 03:48:44;;;;;;;12.75;7.13;;;384.90;2329.60;;;;;;5039479;28;20040;-88
2021/08/20 03:51:11;;;;;;;7.75;5.47;;;384.70;2329.60;;;;;;5042900;28;20025;-88
2021/08/20 03:53:37;;;;;;;8.50;4.78;;;384.70;2329.60;;;;;;5038686;28;20025;-86
2021/08/20 03:56:03;;;;;;;9.13;4.93;;;384.40;2329.60;;;;;;5038876;28;20055;-87
2021/08/20 03:58:29;;;;;;;8.18;4.88;;;384.40;2329.60;;;;;;5038809;28;20036;-86
2021/08/20 04:00:58;;;;;;;9.65;4.88;;;384.90;2329.60;;;;;;5038681;28;20025;-89
2021/08/20 04:03:25;;;;;;;7.75;4.75;;;384.70;2329.60;;;;;;5038809;28;20032;-88
2021/08/20 04:05:51;;;;;;;14.48;4.30;;;359.30;2329.60;;;;;;5038722;28;20099;-88
2021/08/20 04:08:19;;;;;;;10.32;4.00;;;384.00;2329.60;;;;;;5038644;28;20035;-88
2021/08/20 04:10:46;;;;;;;8.02;3.78;;;359.20;2329.60;;;;;;5038625;28;20076;-87
2021/08/20 04:13:17;;;;;;;9.75;3.88;;;384.00;2329.60;;;;;;5056476;28;20032;-87
2021/08/20 04:46:12;;;;;;;12.85;4.35;;;409.70;2355.20;;;;;;4823225;29;20034;-87
2021/08/20 04:48:39;;;;;;;6.03;3.95;;;409.90;2355.20;;;;;;4839864;29;20426;-88
2021/08/20 04:58:16;;;;;;;8.25;4.35;;;410.40;2355.20;;;;;;4810354;29;20075;-87
2021/08/20 05:00:46;;;;;;;7.85;4.07;;;435.30;2355.20;;;;;;4947678;28;20072;-88
2021/08/20 05:03:12;;;;;;;10.32;4.80;;;435.30;2355.20;;;;;;5037557;28;20037;-87
2021/08/20 05:05:41;;;;;;;8.40;4.05;;;435.30;2355.20;;;;;;5037775;28;20488;-86
2021/08/20 05:08:07;;;;;;;8.38;4.97;;;435.40;2355.20;;;;;;5037775;28;20082;-87
2021/08/20 05:10:33;;;;;;;13.23;4.95;;;435.40;2355.20;;;;;;5037460;28;20021;-87
2021/08/20 05:12:59;;;;;;;7.75;4.45;;;410.50;2355.20;;;;;;5037545;28;20028;-86
2021/08/20 05:15:26;;;;;;;13.25;4.78;;;435.20;2355.20;;;;;;5038581;28;20032;-86
2021/08/20 05:17:53;;;;;;;10.23;4.88;;;435.30;2355.20;;;;;;5037413;28;20042;-86
2021/08/20 05:20:19;;;;;;;9.82;4.70;;;435.60;2355.20;;;;;;5037491;28;20036;-86
2021/08/20 05:22:53;;;;;;;13.82;4.75;;;435.50;2355.20;;;;;;5037028;28;20052;-87
2021/08/20 05:25:21;;;;;;;10.45;4.90;;;410.50;2355.20;;;;;;5037203;28;20017;-87
2021/08/20 05:27:48;;;;;;;11.30;5.35;;;410.30;2355.20;;;;;;5036862;28;20028;-87
2021/08/20 05:30:15;;;;;;;12.07;6.53;;;410.40;2355.20;;;;;;5036938;28;20037;-86
2021/08/20 05:32:41;;;;;;;17.02;7.95;;;410.30;2355.20;;;;;;5036960;28;20032;-87
2021/08/20 05:35:12;;;;;;;13.57;6.28;;;410.30;2355.20;;;;;;5036984;28;20124;-88
2021/08/20 05:37:54;;;;;;;;;;;;;;;;;;;;;
2021/08/20 05:40:21;;;;;;;;;;;435.20;2355.20;;;;;;5055121;28;20021;-88
2021/08/20 05:42:47;;;;;;;11.70;5.45;;;410.50;2355.20;;;;;;5036913;28;19955;-87
2021/08/20 05:45:13;;;;;;;13.80;5.63;;;435.30;2355.20;;;;;;5036898;28;20033;-87
2021/08/20 05:47:39;;;;;;;15.48;5.97;;;435.30;2355.20;;;;;;5036711;28;20031;-87
2021/08/20 05:50:06;;;;;;;10.65;5.50;;;435.30;2355.20;;;;;;5036801;28;20025;-88
2021/08/20 05:52:36;;;;;;;9.85;5.13;;;435.30;2355.20;;;;;;5036531;28;20458;-87
2021/08/20 05:55:02;;;;;;;15.80;5.60;;;435.30;2355.20;;;;;;5036746;28;20116;-87
2021/08/20 05:57:28;;;;;;;13.25;5.07;;;435.30;2355.20;;;;;;5022008;28;20025;-86
2021/08/20 05:59:54;;;;;;;9.27;5.55;;;435.50;2355.20;;;;;;5036577;28;20047;-87
2021/08/20 06:02:20;;;;;;;10.32;4.63;;;435.50;2355.20;;;;;;5036469;28;20021;-88
2021/08/20 06:04:46;;;;;;;10.55;5.40;;;435.40;2355.20;;;;;;5036407;28;20016;-86
2021/08/20 06:07:12;;;;;;;17.33;5.82;;;435.60;2355.20;;;;;;5036494;28;20036;-85
2021/08/20 06:09:38;;;;;;;13.40;5.47;;;435.80;2355.20;;;;;;5036376;28;20029;-86
2021/08/20 06:12:04;;;;;;;14.32;6.10;;;435.80;2355.20;;;;;;5036262;28;20021;-86
2021/08/20 06:14:29;;;;;;;14.05;5.95;;;435.90;2355.20;;;;;;5036733;28;20399;-88
2021/08/20 06:16:55;;;;;;;13.90;6.28;;;436.00;2355.20;;;;;;5036500;28;20078;-87
2021/08/20 06:19:25;;;;;;;13.07;4.72;;;460.80;2380.80;;;;;;5036037;28;20033;-87
2021/08/20 06:21:51;;;;;;;17.83;6.00;;;460.80;2380.80;;;;;;5031935;28;20030;-87
2021/08/20 06:24:18;;;;;;;11.10;4.97;;;460.80;2380.80;;;;;;5016770;28;20029;-87
2021/08/20 06:26:46;;;;;;;15.40;6.70;;;460.90;2380.80;;;;;;5016369;28;20459;-87
2021/08/20 06:29:19;;;;;;;12.55;4.88;;;461.00;2380.80;;;;;;5016560;28;20463;-87
2021/08/20 06:31:45;;;;;;;10.60;5.30;;;461.10;2380.80;;;;;;5016704;28;20040;-86
2021/08/20 06:34:11;;;;;;;17.45;5.75;;;461.30;2380.80;;;;;;5016055;28;20475;-87
2021/08/20 06:36:37;;;;;;;12.23;5.10;;;461.40;2380.80;;;;;;5015944;28;20079;-87
2021/08/20 06:39:03;;;;;;;20.08;4.75;;;461.40;2380.80;;;;;;5015641;28;20116;-86
2021/08/20 06:41:29;;;;;;;10.48;4.95;;;461.50;2380.80;;;;;;5017259;28;20025;-88
2021/08/20 06:43:55;;;;;;;8.57;4.15;;;461.70;2380.80;;;;;;5017174;28;20032;-86
2021/08/20 06:46:21;;;;;;;9.75;4.57;;;486.50;2380.80;;;;;;5008810;28;20030;-88
2021/08/20 06:48:56;;;;;;;9.68;4.80;;;486.50;2380.80;;;;;;5016107;28;20087;-86
2021/08/20 06:51:22;;;;;;;7.15;3.35;;;487.00;2380.80;;;;;;5016966;28;20114;-88
2021/08/20 06:53:47;;;;;;;7.72;4.18;;;486.80;2380.80;;;;;;5016768;28;20033;-89
2021/08/20 06:56:13;;;;;;;11.02;4.95;;;486.90;2380.80;;;;;;5016599;28;20140;-86
2021/08/20 06:58:39;;;;;;;9.90;3.65;;;487.10;2380.80;;;;;;5016680;28;20128;-86
2021/08/20 07:01:07;;;;;;;13.32;5.13;;;487.20;2380.80;;;;;;5016718;28;20029;-85
2021/08/20 07:03:33;;;;;;;11.80;4.85;;;512.00;2380.80;;;;;;5016540;28;20030;-84
2021/08/20 07:05:59;;;;;;;13.18;3.97;;;512.20;2380.80;;;;;;5016734;28;20030;-85
2021/08/20 07:08:24;;;;;;;11.23;5.32;;;512.40;2380.80;;;;;;5016828;28;20026;-86
2021/08/20 07:10:50;;;;;;;12.85;8.10;;;512.40;2380.80;;;;;;5016729;28;20034;-85
2021/08/20 07:13:16;;;;;;;13.15;5.28;;;512.60;2380.80;;;;;;5016628;28;20026;-86
2021/08/20 07:15:42;;;;;;;10.50;5.75;;;512.80;2355.20;;;;;;5016416;28;20061;-86
2021/08/20 07:18:08;;;;;;;8.68;4.70;;;512.90;2329.60;;;;;;5016715;28;20045;-85
2021/08/20 07:20:34;;;;;;;8.20;4.95;;;537.60;2329.60;;;;;;5016505;28;20025;-84
2021/08/20 07:23:00;;;;;;;11.77;3.65;;;537.90;2304.00;;;;;;5017340;28;20068;-84
2021/08/20 07:25:26;;;;;;;14.82;4.65;;;537.90;2227.20;;;;;;5016088;28;20409;-84
2021/08/20 07:27:52;;;;;;;13.25;5.18;;;538.00;2227.20;;;;;;5016358;28;20041;-83
2021/08/20 07:30:20;;;;;;;10.35;5.50;;;538.30;2227.20;;;;;;5016243;28;20359;-84
2021/08/20 07:32:46;;;;;;;10.05;4.10;;;538.50;2201.60;;;;;;5016165;28;20026;-84
2021/08/20 07:35:12;;;;;;;8.35;3.80;;;538.50;2201.60;;;;;;5016218;28;20026;-84
2021/08/20 07:37:38;;;;;;;8.60;3.85;;;563.20;2150.40;;;;;;5015873;28;20033;-85
2021/08/20 07:40:05;;;;;;;12.60;5.55;;;563.50;2150.40;;;;;;5016054;28;20026;-84
2021/08/20 07:42:31;;;;;;;10.23;3.38;;;563.70;2099.20;;;;;;5033633;28;20386;-83
2021/08/20 07:44:57;;;;;;;7.65;3.45;;;563.60;2073.60;;;;;;5015751;28;20021;-83
2021/08/20 07:47:23;;;;;;;7.40;4.18;;;563.60;2048.00;;;;;;5015709;28;20033;-83
2021/08/20 07:49:49;;;;;;;6.07;3.58;;;563.70;2048.00;;;;;;5016918;28;20029;-83
2021/08/20 07:52:15;;;;;;;11.43;4.10;;;564.00;2022.40;;;;;;5019297;28;20026;-83
2021/08/20 07:54:40;;;;;;;11.13;3.45;;;588.80;2022.40;;;;;;5018972;28;20037;-83
2021/08/20 07:57:06;;;;;;;8.52;3.70;;;589.00;1996.80;;;;;;5018893;28;20061;-85
2021/08/20 07:59:32;;;;;;;8.75;3.47;;;589.00;1971.20;;;;;;5019152;28;20038;-82
2021/08/20 08:01:58;;;;;;;11.05;4.70;;;589.10;2022.40;;;;;;5019501;28;20030;-83
2021/08/20 08:04:24;;;;;;;9.93;4.30;;;589.30;2022.40;;;;;;5019266;28;20140;-83
2021/08/20 08:06:49;;;;;;;13.48;5.85;;;589.50;2022.40;;;;;;5019003;28;20025;-83
2021/08/20 08:09:15;;;;;;;8.77;4.72;;;589.60;1996.80;;;;;;5019001;28;20032;-85
2021/08/20 08:11:41;;;;;;;21.27;5.50;;;589.60;1996.80;;;;;;5018901;28;20040;-82
2021/08/20 08:14:07;;;;;;;10.50;5.07;;;614.40;1996.80;;;;;;5018341;28;20525;-85
2021/08/20 08:16:35;;;;;;;8.70;5.28;;;614.60;1996.80;;;;;;5018580;28;20021;-82
2021/08/20 08:19:03;;;;;;;9.40;4.63;;;614.70;1996.80;;;;;;5017904;28;20033;-82
2021/08/20 08:21:29;;;;;;;7.65;3.60;;;614.90;1945.60;;;;;;5018370;28;20025;-82
2021/08/20 08:23:56;;;;;;;13.80;5.15;;;614.80;1894.40;;;;;;5035701;28;20485;-82
2021/08/20 08:26:23;;;;;;;7.35;3.72;;;614.90;1920.00;;;;;;5017948;28;20022;-82
2021/08/20 08:28:49;;;;;;;6.68;3.40;;;615.00;1894.40;;;;;;5018039;28;20112;-82
2021/08/20 08:31:15;;;;;;;7.90;3.92;;;615.20;1868.80;;;;;;5035924;28;20511;-82
2021/08/20 08:33:41;;;;;;;11.57;5.65;;;615.30;1868.80;;;;;;5017683;28;20114;-81
2021/08/20 08:36:07;;;;;;;8.20;4.18;;;640.20;1817.60;;;;;;5014590;28;20056;-82
2021/08/20 08:38:33;;;;;;;7.60;4.57;;;640.20;1792.00;;;;;;5015052;28;20034;-83
2021/08/20 08:40:59;;;;;;;9.73;4.05;;;640.40;1792.00;;;;;;5014954;28;20029;-83
2021/08/20 08:43:24;;;;;;;5.60;3.40;;;640.60;1766.40;;;;;;5014788;28;20120;-83
2021/08/20 08:45:50;;;;;;;7.35;3.75;;;640.60;1740.80;;;;;;5014719;28;20080;-82
2021/08/20 08:48:16;;;;;;;5.30;3.60;;;665.60;1792.00;;;;;;5014875;28;20044;-83
2021/08/20 08:50:44;;;;;;;8.38;3.33;;;640.90;1740.80;;;;;;5015740;28;20036;-83
2021/08/20 08:53:10;;;;;;;7.70;3.33;;;640.70;1740.80;;;;;;5017768;28;20052;-82
2021/08/20 08:55:36;;;;;;;6.95;2.92;;;665.70;1766.40;;;;;;5017598;28;20527;-83
2021/08/20 08:58:11;;;;;;;5.97;3.30;;;665.80;1740.80;;;;;;5017937;28;20053;-83
2021/08/20 09:00:38;;;;;;;7.70;3.40;;;665.80;1740.80;;;;;;5017049;28;20103;-83
2021/08/20 09:03:07;;;;;;;7.70;3.42;;;666.00;1715.20;;;;;;5017580;28;20132;-83
2021/08/20 09:05:45;;;;;;;5.82;3.22;;;666.10;1715.20;;;;;;5017546;28;20060;-83
2021/08/20 09:08:17;;;;;;;7.82;3.90;;;666.00;1715.20;;;;;;5035458;28;20030;-82
2021/08/20 09:10:52;;;;;;;9.48;3.85;;;666.10;1740.80;;;;;;5018052;28;20026;-82
2021/08/20 09:13:19;;;;;;;9.43;3.60;;;666.50;1715.20;;;;;;5017750;28;20383;-83
2021/08/20 09:15:45;;;;;;;6.28;3.10;;;691.60;1689.60;;;;;;5035155;28;20029;-83
2021/08/20 09:18:22;;;;;;;6.75;3.50;;;691.40;1689.60;;;;;;5017240;28;20072;-83
2021/08/20 09:20:49;;;;;;;5.88;2.90;;;691.30;1664.00;;;;;;5017337;28;20061;-83
2021/08/20 09:23:24;;;;;;;5.65;2.50;;;691.30;1664.00;;;;;;5016791;28;20032;-84
2021/08/20 09:25:52;;;;;;;7.55;3.25;;;691.30;1664.00;;;;;;5016995;28;20387;-83
2021/08/20 09:28:19;;;;;;;4.90;2.67;;;666.50;1664.00;;;;;;5016935;28;20025;-83
2021/08/20 09:30:57;;;;;;;5.00;2.88;;;691.30;1638.40;;;;;;5035303;28;20066;-83
2021/08/20 09:33:42;;;;;;;5.95;3.78;;;691.40;1612.80;;;;;;5035196;28;20030;-83
2021/08/20 09:36:10;;;;;;;13.73;5.15;;;691.70;1638.40;;;;;;5017257;28;20021;-83
2021/08/20 09:38:42;;;;;;;9.52;4.65;;;691.60;1612.80;;;;;;5017188;28;20029;-83
2021/08/20 09:41:13;;;;;;;6.78;3.05;;;691.80;1612.80;;;;;;5017263;28;20131;-83
2021/08/20 09:43:41;;;;;;;8.13;4.20;;;692.10;1612.80;;;;;;5017108;28;20036;-83
2021/08/20 09:46:16;;;;;;;5.95;3.30;;;716.90;1638.40;;;;;;5017004;28;20471;-85
2021/08/20 09:48:54;;;;;;;6.00;3.53;;;717.00;1612.80;;;;;;5017303;28;20030;-84
2021/08/20 09:51:47;;;;;;;9.48;3.90;;;717.20;1638.40;;;;;;5017021;28;20025;-83
2021/08/20 09:54:23;;;;;;;5.18;2.50;;;717.50;1587.20;;;;;;5014190;28;20179;-84
2021/08/20 09:56:49;;;;;;;6.03;3.35;;;717.10;1561.60;;;;;;5016683;28;20046;-83
2021/08/20 09:59:15;;;;;;;10.13;3.67;;;717.40;1587.20;;;;;;5016853;28;20037;-85
2021/08/20 10:01:43;;;;;;;7.03;3.83;;;717.70;1561.60;;;;;;5016993;28;20030;-83
2021/08/20 10:04:11;;;;;;;8.40;4.03;;;717.70;1536.00;;;;;;5016963;28;20033;-85
2021/08/20 10:06:40;;;;;;;8.95;3.30;;;742.50;1561.60;;;;;;5016871;28;20029;-83
2021/08/20 10:09:11;;;;;;;6.70;3.40;;;742.80;1536.00;;;;;;5016882;28;20036;-85
2021/08/20 10:11:45;;;;;;;6.07;3.58;;;742.90;1484.80;;;;;;5017136;28;20048;-83
2021/08/20 10:14:11;;;;;;;8.27;3.63;;;743.10;1484.80;;;;;;5016681;28;20060;-84
2021/08/20 10:16:38;;;;;;;5.97;3.13;;;743.30;1459.20;;;;;;5016568;28;20570;-84
2021/08/20 10:19:06;;;;;;;7.57;3.97;;;743.30;1459.20;;;;;;5017683;28;20037;-84
2021/08/20 10:21:34;;;;;;;11.88;4.35;;;768.00;1459.20;;;;;;5027813;28;20066;-83
2021/08/20 10:24:01;;;;;;;4.15;2.30;;;768.40;1459.20;;;;;;5033488;28;20188;-83
2021/08/20 10:26:28;;;;;;;6.00;2.97;;;768.40;1408.00;;;;;;5032217;28;20033;-82
2021/08/20 10:28:54;;;;;;;7.60;2.90;;;768.60;1433.60;;;;;;5028799;28;20125;-83
2021/08/20 10:31:22;;;;;;;7.40;3.00;;;768.50;1408.00;;;;;;5027199;28;20022;-83
2021/08/20 10:33:48;;;;;;;5.45;2.67;;;793.60;1408.00;;;;;;5028188;28;20026;-84
2021/08/20 10:36:15;;;;;;;5.20;3.10;;;768.90;1382.40;;;;;;5025509;28;20032;-84
2021/08/20 10:38:50;;;;;;;9.98;7.03;;;768.90;1382.40;;;;;;5027176;28;20045;-83
2021/08/20 10:41:21;;;;;;;11.55;7.68;;;793.70;1408.00;;;;;;5029283;28;20017;-83
2021/08/20 10:43:47;;;;;;;6.63;3.42;;;;;;;;;;5028923;28;20084;-83
2021/08/20 10:46:31;;;;;;;6.57;3.00;;;794.40;1356.80;;;;;;5023427;28;20130;-83
2021/08/20 10:49:14;;;;;;;5.75;2.55;;;794.50;1331.20;;;;;;5038294;28;20455;-83
2021/08/20 10:52:06;;;;;;;6.53;3.28;;;794.50;1331.20;;;;;;5027076;28;20034;-84
2021/08/20 10:54:36;;;;;;;5.22;2.72;;;819.20;1356.80;;;;;;5050341;28;20026;-83
2021/08/20 10:57:02;;;;;;;6.22;2.38;;;819.40;1305.60;;;;;;5037478;28;20041;-83
2021/08/20 10:59:43;;;;;;;4.95;2.40;;;819.20;1280.00;;;;;;5054555;28;20085;-85
2021/08/20 11:02:21;;;;;;;4.97;2.83;;;819.30;1280.00;;;;;;5035909;28;20467;-84
2021/08/20 11:04:59;;;;;;;8.93;3.13;;;819.60;1254.40;;;;;;5034190;28;20029;-83
2021/08/20 11:07:37;;;;;;;6.03;2.88;;;819.90;1280.00;;;;;;5032449;28;20036;-84
2021/08/20 11:10:11;;;;;;;4.88;2.15;;;819.80;1254.40;;;;;;5033789;28;20076;-84
2021/08/20 11:12:49;;;;;;;4.32;2.42;;;819.80;1280.00;;;;;;5032341;28;20097;-83
2021/08/20 11:15:18;;;;;;;5.40;2.33;;;820.00;1228.80;;;;;;5036252;28;20033;-84
2021/08/20 11:17:55;;;;;;;4.38;2.55;;;820.00;1228.80;;;;;;5036974;28;20033;-83
2021/08/20 11:20:28;;;;;;;3.47;2.10;;;820.10;1228.80;;;;;;5037999;28;20025;-84
2021/08/20 11:23:09;;;;;;;4.50;2.85;;;820.10;1228.80;;;;;;5038553;28;20057;-84
2021/08/20 11:25:37;;;;;;;5.37;3.00;;;844.90;1280.00;;;;;;5038603;28;20030;-81
2021/08/20 11:28:06;;;;;;;4.63;2.40;;;845.20;1305.60;;;;;;5041219;28;20285;-81
2021/08/20 11:30:36;;;;;;;6.07;2.47;;;845.20;1228.80;;;;;;5041973;28;20191;-82
2021/08/20 11:33:10;;;;;;;4.13;2.55;;;845.20;1228.80;;;;;;5040526;28;20471;-82
2021/08/20 11:35:36;;;;;;;6.50;2.63;;;845.40;1228.80;;;;;;5042106;28;20053;-80
2021/08/20 11:38:03;;;;;;;4.03;2.22;;;845.70;1228.80;;;;;;5043678;28;20041;-82
2021/08/20 11:40:29;;;;;;;3.67;2.08;;;845.10;1203.20;;;;;;5035331;28;20116;-82
2021/08/20 11:43:12;;;;;;;3.53;2.17;;;845.30;1203.20;;;;;;5041711;28;20040;-81
2021/08/20 11:45:38;;;;;;;4.55;2.72;;;845.30;1177.60;;;;;;5043569;28;20025;-80
2021/08/20 11:48:05;;;;;;;4.75;2.97;;;845.40;1203.20;;;;;;5041509;28;20040;-80
2021/08/20 11:50:32;;;;;;;14.00;4.70;;;845.70;1177.60;;;;;;5060824;28;20029;-79
2021/08/20 11:52:59;;;;;;;10.18;3.65;;;870.60;1177.60;;;;;;5043647;28;20041;-81
2021/08/20 11:55:26;;;;;;;3.97;2.38;;;870.90;1177.60;;;;;;5043352;28;20025;-79
2021/08/20 11:57:52;;;;;;;5.78;2.55;;;845.70;1152.00;;;;;;5043843;28;20026;-79
2021/08/20 12:00:18;;;;;;;5.47;2.33;;;870.70;1177.60;;;;;;5043832;28;20024;-78
2021/08/20 12:02:44;;;;;;;5.13;2.63;;;870.80;1152.00;;;;;;5043315;28;20045;-81
2021/08/20 12:05:20;;;;;;;4.38;2.78;;;871.10;1152.00;;;;;;5042011;28;20040;-81
2021/08/20 12:07:47;;;;;;;3.53;2.17;;;871.30;1126.40;;;;;;5060557;28;20040;-81
2021/08/20 12:10:16;;;;;;;7.97;2.72;;;896.00;1126.40;;;;;;5042315;28;20010;-82
2021/08/20 12:12:43;;;;;;;4.53;2.58;;;896.00;1152.00;;;;;;5027724;28;20025;-82
2021/08/20 12:15:11;;;;;;;3.42;1.98;;;871.20;1126.40;;;;;;5026947;28;20469;-81
2021/08/20 12:17:37;;;;;;;4.07;2.72;;;871.10;1126.40;;;;;;5040593;28;20028;-80
2021/08/20 12:20:21;;;;;;;5.57;2.60;;;871.30;1126.40;;;;;;5019058;28;20048;-82
2021/08/20 12:22:50;;;;;;;4.20;2.28;;;871.30;1152.00;;;;;;5019932;28;20029;-81
2021/08/20 12:25:20;;;;;;;4.68;2.92;;;896.40;1100.80;;;;;;5020041;28;20029;-82
2021/08/20 12:27:47;;;;;;;4.00;2.40;;;896.20;1100.80;;;;;;5019971;28;20033;-80
2021/08/20 12:30:22;;;;;;;4.65;2.42;;;896.20;1126.40;;;;;;5019268;28;20026;-80
2021/08/20 12:32:59;;;;;;;5.70;2.70;;;896.40;1126.40;;;;;;5019444;28;20359;-81
2021/08/20 12:35:27;;;;;;;5.13;3.00;;;896.60;1100.80;;;;;;5019020;28;20497;-80
2021/08/20 12:38:17;;;;;;;8.27;3.50;;;896.70;1100.80;;;;;;5017679;28;20040;-81
2021/08/20 12:40:54;;;;;;;3.72;2.45;;;896.80;1100.80;;;;;;5017952;28;20026;-79
2021/08/20 12:43:22;;;;;;;4.93;2.33;;;921.60;1126.40;;;;;;5035342;28;20025;-80
2021/08/20 12:46:18;;;;;;;5.63;2.33;;;921.70;1126.40;;;;;;5017570;28;20112;-80
2021/08/20 12:48:53;;;;;;;4.80;2.60;;;921.60;1126.40;;;;;;5018067;28;20033;-81
2021/08/20 12:51:19;;;;;;;5.57;2.17;;;921.70;1100.80;;;;;;5017636;28;20120;-79
2021/08/20 12:53:45;;;;;;;7.60;3.53;;;921.80;1100.80;;;;;;5017554;28;20112;-78
2021/08/20 12:56:11;;;;;;;14.40;3.15;;;921.70;1075.20;;;;;;5018269;28;20572;-78
2021/08/20 12:58:37;;;;;;;4.80;2.35;;;922.00;1100.80;;;;;;5019310;28;20495;-80